Raccoon, KY

3:57 PM EDT on July 23, 2017 (GMT -0400)
East Kentucky Broadcasting | | Change Station

Elev 1080 ft 37.48 °N, 82.52 °W | Updated 3 seconds ago

Clear
Clear
85.6 °F
Feels Like 92 °F
N
3.5
Wind Variable Wind from West
Gusts 3.5 mph

Today
High -- | Low -- °F
--% Chance of Precip.
Yesterday
High -- | Low -- °F
Precip. -- in
Pressure 29.88 in
Visibility 10.0 miles
Clouds Clear
Heat Index 92 °F
Dew Point 72 °F
Humidity 64%
Rainfall 0.41 in
Snow Depth Not available.
6:26 AM 8:45 PM
New Moon, 0% visible
METAR KSJS 231935Z AUTO 22007KT 10SM CLR 29/21 A2988 RMK AO2 T02850212
Pressure 29.88 in
Visibility 10.0 miles
Clouds Clear
Heat Index 92 °F
Dew Point 72 °F
Humidity 64%
Rainfall 0.41 in
Snow Depth Not available.
6:26 AM 8:45 PM
New Moon, 0% visible
METAR KSJS 231935Z AUTO 22007KT 10SM CLR 29/21 A2988 RMK AO2 T02850212

Get Your Daily Forecast Email!

Thanks for signing up!

Be on the lookout for a verification email in your inbox.

You'll start receiving severe weather alerts in your inbox..

×

10-Day Weather Forecast

Almanac

Astronomy

Jul. 23, 2017 Rise Set
Actual Time
Civil Twilight
Nautical Twilight
Astronomical Twilight
Moon
Length of Visible Light
Length of Day
Tomorrow will be .
, % of the Moon is Illuminated

Today's Extremes

State Highs State Lows

Community

WunderPhotos

Category 6

Welcome to Category 6. This is the collective home for Weather Underground's featured writeups by Dr. Jeff Masters (right), Bob Henson (left), Chris Burt, and other regular contributors.

Nearby

Air Quality

  Air Quality AQ Index Pollutant
Not available.

Snow Depth

Station Depth Elevation

Earthquake Activity

City Distance Mag. Time & Date
Minimum magnitude displayed is 2.5.

Coastal Water Temperatures

Place Temperature

Stations

Nearby Weather Stations

Station Location Temp. Windchill Dew Point Humidity Wind Precip. Elev Updated Type
                   

Watches & Warnings

Flood Watch / Flood Statement
Issued: 3:54 PM EDT Jul. 23, 2017 – National Weather Service

... Flash Flood Watch is cancelled...

The Flash Flood Watch for portions of east central Kentucky,
northeast Kentucky, and southeast Kentucky has been cancelled.